Middlebranch, OH (44652)

7:53 PM EDT on September 04, 2015 (GMT -0400)
Louisville @ LV Beez on E. Reno | | Change Station
CLOSE
Current Station
Personal Weather Station
Location: Louisville, OH
Elevation: 1148 ft
Nearby Weather Stations

Elev 1148 ft 40.85 °N, 81.25 °W | Updated 3 minutes ago

Mostly Cloudy
Mostly Cloudy
73.9 °F
Feels Like 74 °F
N
0.0
Wind Variable Wind from SSE

Today
High -- | Low -- °F
--% Chance of Precip.
Yesterday
High -- | Low -- °F
Precip. -- in
6:54 AM 7:53 PM
Waning Gibbous, 55% visible
Pressure 30.06 in
Visibility 10.0 miles
Clouds Mostly Cloudy 15000 ft
Mostly Cloudy 20000 ft
Heat Index 74 °F
Dew Point 68 °F
Humidity 82%
Rainfall 0.03 in
Snow Depth Not available.
UV 0 out of 12
Pollen 9.20 out of 12
Air Quality Not available.
Flu Activity Not available.
METAR KCAK 042251Z 17004KT 10SM BKN150 BKN200 27/19 A3008 RMK AO2 SLP178 T02670189
Pressure 30.06 in
Visibility 10.0 miles
Clouds Mostly Cloudy 15000 ft
Mostly Cloudy 20000 ft
Heat Index 74 °F
Dew Point 68 °F
Humidity 82%
Rainfall 0.03 in
Snow Depth Not available.
UV 0 out of 12
Pollen 9.20 out of 12
Air Quality Not available.
Flu Activity Not available.
METAR KCAK 042251Z 17004KT 10SM BKN150 BKN200 27/19 A3008 RMK AO2 SLP178 T02670189

10-Day Weather Forecast

×

Almanac

Astronomy

Sep. 04, 2015 Rise Set
Actual Time
Civil Twilight
Nautical Twilight
Astronomical Twilight
Moon
Length of Visible Light
Length of Day
Tomorrow will be .
, % of the Moon is Illuminated

Today's Extremes

State Highs State Lows

Community

WunderPhotos

Upload Photos

1,852,338 photos uploaded!

WunderBlogs® & News

Nearby

Air Quality

  Air Quality AQ Index Pollutant
Not available.

Snow Depth

Station Depth Elevation

Earthquake Activity

City Distance Mag. Time & Date
Minimum magnitude displayed is 2.5.

Coastal Water Temperatures

Place Temperature

Stations

Nearby Weather Stations

Station Location Temp. Windchill Dew Point Humidity Wind Precip. Elev Updated Type